createdAt,value
2018-03-03T00:02:26.201Z,-1.40
2018-03-03T00:04:53.717Z,-1.20
2018-03-03T00:07:21.248Z,-1.00
2018-03-03T00:09:49.525Z,-0.90
2018-03-03T00:12:17.834Z,-0.90
2018-03-03T00:14:45.322Z,-0.90
2018-03-03T00:17:12.846Z,-1.00
2018-03-03T00:19:40.385Z,-1.20
2018-03-03T00:22:07.954Z,-1.10
2018-03-03T00:24:35.450Z,-1.00
2018-03-03T00:27:02.966Z,-0.90
2018-03-03T00:29:30.518Z,-0.90
2018-03-03T00:31:58.802Z,-0.90
2018-03-03T00:34:26.345Z,-0.90
2018-03-03T00:36:54.624Z,-0.90
2018-03-03T00:39:23.127Z,-0.90
2018-03-03T00:41:50.632Z,-1.00
2018-03-03T00:44:18.225Z,-1.10
2018-03-03T00:46:45.743Z,-1.10
2018-03-03T00:49:13.265Z,-1.00
2018-03-03T00:51:40.784Z,-1.20
2018-03-03T00:54:09.076Z,-1.30
2018-03-03T00:56:36.582Z,-1.30
2018-03-03T00:59:04.085Z,-1.30
2018-03-03T01:01:31.602Z,-1.30
2018-03-03T01:03:59.201Z,-1.10
2018-03-03T01:06:26.759Z,-1.10
2018-03-03T01:08:54.285Z,-1.10
2018-03-03T01:11:21.794Z,-1.00
2018-03-03T01:13:49.316Z,-1.00
2018-03-03T01:16:16.817Z,-1.00
2018-03-03T01:18:44.308Z,-1.10
2018-03-03T01:21:12.603Z,-0.90
2018-03-03T01:23:40.969Z,-0.80
2018-03-03T01:26:09.244Z,-0.90
2018-03-03T01:28:37.561Z,-0.90
2018-03-03T01:31:05.081Z,-1.00
2018-03-03T01:33:33.393Z,-1.00
2018-03-03T01:36:00.917Z,-1.10
2018-03-03T01:38:29.193Z,-1.10
2018-03-03T01:40:57.467Z,-1.10
2018-03-03T01:43:25.763Z,-1.30
2018-03-03T01:45:53.290Z,-1.30
2018-03-03T01:48:20.809Z,-1.30
2018-03-03T01:50:48.347Z,-1.10
2018-03-03T01:53:15.883Z,-1.00
2018-03-03T01:55:43.375Z,-1.20
2018-03-03T01:58:10.898Z,-1.40
2018-03-03T02:00:38.412Z,-1.50
2018-03-03T02:03:05.942Z,-1.40
2018-03-03T02:05:33.452Z,-1.40
2018-03-03T02:08:01.705Z,-1.30
2018-03-03T02:10:29.533Z,-1.40
2018-03-03T02:12:57.030Z,-1.50
2018-03-03T02:15:24.615Z,-1.50
2018-03-03T02:17:52.888Z,-1.80
2018-03-03T02:20:21.268Z,-1.90
2018-03-03T02:22:49.533Z,-1.70
2018-03-03T02:25:17.801Z,-1.90
2018-03-03T02:27:46.091Z,-2.00
2018-03-03T02:30:14.350Z,-2.10
2018-03-03T02:32:42.660Z,-2.10
2018-03-03T02:35:10.148Z,-2.20
2018-03-03T02:37:37.643Z,-2.10
2018-03-03T02:40:05.933Z,-2.20
2018-03-03T02:42:34.191Z,-2.10
2018-03-03T02:45:02.498Z,-2.10
2018-03-03T02:47:30.044Z,-2.10
2018-03-03T02:49:57.591Z,-1.90
2018-03-03T02:52:25.873Z,-2.00
2018-03-03T02:54:53.377Z,-2.00
2018-03-03T02:57:20.998Z,-2.00
2018-03-03T02:59:48.497Z,-2.10
2018-03-03T03:02:16.008Z,-2.10
2018-03-03T03:04:43.569Z,-2.00
2018-03-03T03:07:11.109Z,-2.00
2018-03-03T03:09:39.385Z,-2.10
2018-03-03T03:12:07.653Z,-2.00
2018-03-03T03:14:35.960Z,-2.00
2018-03-03T03:17:03.466Z,-2.00
2018-03-03T03:19:30.962Z,-2.00
2018-03-03T03:21:58.475Z,-2.10
2018-03-03T03:24:25.986Z,-2.00
2018-03-03T03:26:53.495Z,-2.20
2018-03-03T03:29:20.995Z,-2.20
2018-03-03T03:31:48.507Z,-2.40
2018-03-03T03:34:16.016Z,-2.40
2018-03-03T03:36:43.573Z,-2.60
2018-03-03T03:39:11.099Z,-2.60
2018-03-03T03:41:39.406Z,-2.40
2018-03-03T03:44:06.903Z,-2.50
2018-03-03T03:46:34.435Z,-2.40
2018-03-03T03:49:02.007Z,-2.40
2018-03-03T03:51:29.508Z,-2.50
2018-03-03T03:53:57.784Z,-2.70
2018-03-03T03:56:26.073Z,-2.60
2018-03-03T03:58:53.621Z,-2.70
2018-03-03T04:01:21.182Z,-2.60
2018-03-03T04:03:48.684Z,-2.60
2018-03-03T04:06:16.196Z,-2.60
2018-03-03T04:08:43.761Z,-2.60
2018-03-03T04:11:11.300Z,-2.50
2018-03-03T04:13:39.575Z,-2.60
2018-03-03T04:16:07.877Z,-2.60
2018-03-03T04:18:35.394Z,-2.70
2018-03-03T04:21:03.681Z,-2.60
2018-03-03T04:23:31.951Z,-2.70
2018-03-03T04:26:00.227Z,-2.70
2018-03-03T04:28:28.509Z,-2.70
2018-03-03T04:30:56.023Z,-2.80
2018-03-03T04:33:23.535Z,-2.70
2018-03-03T04:35:51.056Z,-2.70
2018-03-03T04:38:18.554Z,-2.70
2018-03-03T04:40:46.108Z,-2.60
2018-03-03T04:43:13.689Z,-2.60
2018-03-03T04:45:41.231Z,-2.70
2018-03-03T04:48:08.735Z,-2.80
2018-03-03T04:50:36.264Z,-2.80
2018-03-03T04:53:03.767Z,-2.70
2018-03-03T04:55:32.039Z,-2.70
2018-03-03T04:58:00.303Z,-2.90
2018-03-03T05:00:41.592Z,-2.90
2018-03-03T05:03:15.449Z,-2.80
2018-03-03T05:05:48.640Z,-2.90
2018-03-03T05:08:31.032Z,-2.70
2018-03-03T05:10:58.544Z,-2.80
2018-03-03T05:13:26.991Z,-2.90
2018-03-03T05:19:03.153Z,-2.80
2018-03-03T05:24:45.230Z,-2.90
2018-03-03T05:27:16.462Z,-2.80
2018-03-03T05:29:49.669Z,-2.90
2018-03-03T05:32:23.542Z,-2.80
2018-03-03T05:38:14.201Z,-2.90
2018-03-03T05:40:47.491Z,-2.80
2018-03-03T05:43:20.700Z,-3.10
2018-03-03T05:45:53.913Z,-3.30
2018-03-03T05:48:27.208Z,-3.20
2018-03-03T05:54:18.193Z,-3.10
2018-03-03T05:57:00.586Z,-3.20
2018-03-03T05:59:29.456Z,-3.10
2018-03-03T06:05:20.715Z,-3.10
2018-03-03T06:07:53.855Z,-3.30
2018-03-03T06:13:22.808Z,-3.10
2018-03-03T06:15:50.317Z,-3.20
2018-03-03T06:18:17.981Z,-3.20
2018-03-03T06:20:45.475Z,-3.10
2018-03-03T06:23:13.866Z,-2.90
2018-03-03T06:25:41.428Z,-2.90
2018-03-03T06:28:08.941Z,-2.90
2018-03-03T06:30:36.550Z,-2.80
2018-03-03T06:33:04.078Z,-2.70
2018-03-03T06:35:32.375Z,-2.60
2018-03-03T06:37:59.884Z,-2.60
2018-03-03T06:40:27.478Z,-2.60
2018-03-03T06:42:55.857Z,-2.50
2018-03-03T06:45:24.135Z,-2.30
2018-03-03T06:47:52.417Z,-2.30
2018-03-03T06:50:19.930Z,-2.30
2018-03-03T06:52:47.431Z,-2.10
2018-03-03T06:55:14.950Z,-1.80
2018-03-03T06:57:43.219Z,-1.20
2018-03-03T07:00:10.734Z,-1.30
2018-03-03T07:02:38.241Z,-1.20
2018-03-03T07:05:05.819Z,-1.20
2018-03-03T07:07:34.094Z,-0.50
2018-03-03T07:10:02.485Z,-0.10
2018-03-03T07:12:30.003Z,-0.10
2018-03-03T07:14:57.497Z,0.50
2018-03-03T07:17:25.020Z,1.70
2018-03-03T07:19:52.524Z,3.30
2018-03-03T07:22:20.033Z,1.70
2018-03-03T07:24:47.542Z,1.80
2018-03-03T07:27:15.173Z,0.50
2018-03-03T07:29:42.699Z,0.40
2018-03-03T07:32:10.183Z,0.50
2018-03-03T07:34:38.453Z,0.90
2018-03-03T07:37:06.734Z,0.40
2018-03-03T07:39:34.262Z,0.30
2018-03-03T07:42:01.797Z,0.70
2018-03-03T07:44:29.306Z,0.80
2018-03-03T07:46:56.869Z,1.00
2018-03-03T07:49:24.376Z,1.30
2018-03-03T07:51:51.867Z,1.70
2018-03-03T07:54:20.169Z,1.50
2018-03-03T07:57:11.375Z,1.40
2018-03-03T07:59:38.896Z,1.80
2018-03-03T08:02:06.449Z,1.70
2018-03-03T08:04:33.965Z,2.10
2018-03-03T08:07:01.455Z,2.80
2018-03-03T08:09:28.935Z,3.40
2018-03-03T08:11:57.196Z,4.10
2018-03-03T08:14:24.783Z,4.00
2018-03-03T08:16:53.061Z,4.10
2018-03-03T08:19:20.628Z,4.00
2018-03-03T08:21:48.114Z,4.40
2018-03-03T08:24:15.641Z,3.90
2018-03-03T08:26:43.135Z,3.90
2018-03-03T08:29:10.630Z,4.40
2018-03-03T08:31:38.898Z,4.90
2018-03-03T08:34:07.180Z,4.10
2018-03-03T08:36:35.458Z,3.70
2018-03-03T08:39:03.730Z,3.80
2018-03-03T08:41:31.979Z,3.80
2018-03-03T08:43:59.511Z,3.70
2018-03-03T08:46:27.026Z,4.00
2018-03-03T08:48:55.300Z,4.30
2018-03-03T08:51:23.567Z,3.80
2018-03-03T08:53:51.842Z,3.30
2018-03-03T08:56:20.135Z,2.90
2018-03-03T08:58:47.662Z,2.80
2018-03-03T09:01:15.259Z,3.00
2018-03-03T09:03:42.756Z,3.50
2018-03-03T09:06:10.258Z,3.60
2018-03-03T09:08:37.751Z,3.40
2018-03-03T09:11:05.239Z,3.70
2018-03-03T09:13:33.044Z,3.60
2018-03-03T09:16:00.351Z,3.90
2018-03-03T09:18:27.872Z,4.10
2018-03-03T09:20:55.361Z,4.00
2018-03-03T09:23:22.899Z,4.10
2018-03-03T09:25:50.521Z,3.80
2018-03-03T09:28:18.140Z,3.70
2018-03-03T09:30:45.639Z,3.40
2018-03-03T09:33:13.179Z,3.20
2018-03-03T09:35:41.441Z,3.00
2018-03-03T09:38:09.024Z,3.00
2018-03-03T09:40:37.397Z,2.90
2018-03-03T09:43:05.658Z,2.90
2018-03-03T09:45:33.912Z,3.00
2018-03-03T09:48:01.411Z,3.00
2018-03-03T09:50:28.917Z,3.20
2018-03-03T09:52:56.420Z,3.20
2018-03-03T09:55:23.971Z,3.40
2018-03-03T09:57:52.367Z,2.80
2018-03-03T10:00:19.856Z,2.70
2018-03-03T10:02:47.349Z,3.10
2018-03-03T10:05:15.645Z,3.20
2018-03-03T10:07:43.153Z,3.10
2018-03-03T10:10:10.755Z,3.00
2018-03-03T10:12:39.018Z,3.00
2018-03-03T10:15:07.429Z,3.10
2018-03-03T10:17:34.977Z,3.00
2018-03-03T10:20:02.478Z,3.10
2018-03-03T10:22:30.019Z,2.80
2018-03-03T10:24:57.541Z,3.00
2018-03-03T10:27:25.018Z,3.20
2018-03-03T10:29:52.513Z,3.20
2018-03-03T10:32:20.042Z,2.90
2018-03-03T10:34:47.544Z,3.20
2018-03-03T10:37:15.842Z,3.20
2018-03-03T10:39:43.364Z,3.10
2018-03-03T10:42:10.866Z,3.30
2018-03-03T10:44:38.368Z,3.00
2018-03-03T10:47:06.667Z,3.00
2018-03-03T10:49:34.947Z,3.40
2018-03-03T10:52:03.225Z,3.70
2018-03-03T10:54:31.531Z,3.70
2018-03-03T10:56:59.064Z,3.60
2018-03-03T10:59:27.445Z,3.00
2018-03-03T11:01:55.004Z,3.00
2018-03-03T11:04:22.501Z,3.00
2018-03-03T11:06:50.017Z,3.10
2018-03-03T11:09:17.600Z,2.90
2018-03-03T11:11:45.105Z,2.70
2018-03-03T11:14:13.361Z,2.60
2018-03-03T11:16:40.889Z,2.50
2018-03-03T11:19:08.385Z,2.40
2018-03-03T11:21:35.927Z,2.60
2018-03-03T11:24:03.430Z,4.60
2018-03-03T11:26:31.707Z,3.70
2018-03-03T11:28:59.203Z,3.60
2018-03-03T11:31:26.819Z,3.20
2018-03-03T11:33:55.093Z,3.20
2018-03-03T11:36:23.493Z,3.40
2018-03-03T11:38:51.000Z,3.30
2018-03-03T11:41:18.999Z,4.10
2018-03-03T11:43:47.249Z,4.30
2018-03-03T11:46:14.775Z,4.20
2018-03-03T11:48:42.383Z,3.80
2018-03-03T11:51:10.678Z,4.00
2018-03-03T11:53:38.163Z,4.00
2018-03-03T11:56:05.663Z,4.20
2018-03-03T11:58:33.994Z,4.00
2018-03-03T12:01:01.447Z,4.00
2018-03-03T12:03:28.972Z,4.10
2018-03-03T12:05:56.516Z,4.60
2018-03-03T12:08:24.797Z,4.60
2018-03-03T12:10:53.093Z,4.70
2018-03-03T12:13:20.599Z,4.60
2018-03-03T12:15:48.187Z,5.10
2018-03-03T12:18:16.451Z,5.10
2018-03-03T12:20:44.710Z,4.70
2018-03-03T12:23:12.187Z,4.60
2018-03-03T12:25:40.453Z,4.80
2018-03-03T12:28:08.733Z,4.70
2018-03-03T12:30:37.005Z,4.60
2018-03-03T12:33:05.269Z,4.80
2018-03-03T12:35:33.557Z,5.10
2018-03-03T12:38:01.827Z,5.30
2018-03-03T12:40:29.400Z,5.30
2018-03-03T12:42:57.078Z,5.80
2018-03-03T12:45:24.570Z,6.00
2018-03-03T12:47:52.077Z,6.10
2018-03-03T12:50:20.339Z,5.70
2018-03-03T12:52:48.737Z,5.50
2018-03-03T12:55:16.250Z,5.40
2018-03-03T12:57:43.854Z,5.30
2018-03-03T13:00:11.354Z,6.00
2018-03-03T13:02:38.836Z,5.20
2018-03-03T13:05:07.112Z,5.30
2018-03-03T13:07:35.357Z,5.10
2018-03-03T13:10:02.962Z,5.10
2018-03-03T13:12:30.480Z,5.10
2018-03-03T13:14:57.971Z,4.70
2018-03-03T13:17:26.235Z,4.20
2018-03-03T13:19:54.939Z,4.40
2018-03-03T13:22:22.435Z,4.40
2018-03-03T13:24:50.044Z,4.40
2018-03-03T13:27:18.419Z,4.10
2018-03-03T13:29:46.666Z,4.30
2018-03-03T13:32:14.257Z,4.20
2018-03-03T13:34:41.778Z,4.30
2018-03-03T13:37:09.272Z,4.30
2018-03-03T13:39:36.787Z,4.30
2018-03-03T13:42:04.289Z,3.70
2018-03-03T13:44:31.841Z,3.60
2018-03-03T13:46:59.333Z,3.50
2018-03-03T13:49:26.836Z,3.40
2018-03-03T13:51:55.092Z,3.80
2018-03-03T13:54:22.617Z,3.80
2018-03-03T13:56:50.115Z,3.90
2018-03-03T13:59:17.822Z,3.60
2018-03-03T14:01:45.340Z,3.70
2018-03-03T14:04:13.658Z,3.50
2018-03-03T14:06:41.196Z,3.50
2018-03-03T14:09:08.788Z,3.60
2018-03-03T14:11:36.293Z,3.60
2018-03-03T14:14:04.688Z,3.80
2018-03-03T14:16:32.348Z,3.80
2018-03-03T14:18:59.843Z,3.90
2018-03-03T14:21:27.464Z,3.80
2018-03-03T14:23:55.023Z,3.70
2018-03-03T14:26:22.525Z,3.70
2018-03-03T14:28:50.156Z,3.70
2018-03-03T14:31:17.787Z,4.10
2018-03-03T14:33:46.058Z,3.90
2018-03-03T14:36:14.330Z,3.90
2018-03-03T14:38:42.613Z,3.80
2018-03-03T14:41:10.993Z,3.80
2018-03-03T14:43:39.258Z,3.70
2018-03-03T14:46:07.515Z,3.70
2018-03-03T14:48:34.999Z,3.60
2018-03-03T14:51:03.315Z,4.00
2018-03-03T14:53:30.833Z,4.00
2018-03-03T14:55:58.332Z,4.20
2018-03-03T14:58:25.954Z,4.10
2018-03-03T15:00:53.454Z,3.80
2018-03-03T15:03:20.948Z,3.40
2018-03-03T15:05:49.212Z,3.50
2018-03-03T15:08:16.731Z,3.40
2018-03-03T15:10:45.219Z,3.60
2018-03-03T15:13:12.713Z,3.50
2018-03-03T15:15:40.994Z,3.10
2018-03-03T15:18:09.256Z,3.00
2018-03-03T15:20:37.557Z,3.00
2018-03-03T15:23:05.073Z,3.00
2018-03-03T15:25:32.601Z,3.00
2018-03-03T15:28:00.102Z,2.70
2018-03-03T15:30:28.351Z,2.80
2018-03-03T15:32:55.847Z,2.70
2018-03-03T15:35:24.108Z,2.80
2018-03-03T15:37:52.384Z,2.60
2018-03-03T15:40:20.698Z,2.70
2018-03-03T15:42:48.228Z,2.60
2018-03-03T15:45:16.536Z,2.80
2018-03-03T15:47:44.023Z,2.70
2018-03-03T15:50:11.637Z,2.80
2018-03-03T15:52:39.149Z,2.70
2018-03-03T15:55:06.644Z,2.70
2018-03-03T15:57:34.131Z,2.70
2018-03-03T16:00:02.024Z,2.70
2018-03-03T16:02:29.621Z,2.80
2018-03-03T16:04:57.148Z,2.80
2018-03-03T16:07:24.685Z,2.80
2018-03-03T16:09:52.188Z,3.00
2018-03-03T16:12:19.686Z,3.00
2018-03-03T16:14:47.222Z,2.80
2018-03-03T16:17:14.759Z,3.00
2018-03-03T16:19:43.041Z,2.90
2018-03-03T16:22:10.540Z,2.80
2018-03-03T16:24:38.053Z,3.10
2018-03-03T16:27:05.581Z,3.10
2018-03-03T16:29:33.862Z,2.80
2018-03-03T16:32:02.131Z,2.90
2018-03-03T16:34:30.437Z,3.10
2018-03-03T16:36:57.943Z,3.00
2018-03-03T16:39:25.459Z,3.20
2018-03-03T16:41:52.965Z,3.10
2018-03-03T16:44:20.564Z,2.80
2018-03-03T16:46:48.117Z,2.50
2018-03-03T16:49:15.660Z,2.50
2018-03-03T16:51:43.238Z,2.40
2018-03-03T16:54:10.778Z,2.40
2018-03-03T16:56:39.045Z,2.70
2018-03-03T16:59:07.346Z,2.60
2018-03-03T17:01:34.864Z,2.60
2018-03-03T17:04:02.359Z,2.80
2018-03-03T17:06:29.881Z,3.00
2018-03-03T17:08:58.177Z,3.30
2018-03-03T17:11:26.447Z,3.20
2018-03-03T17:13:54.703Z,3.10
2018-03-03T17:16:22.217Z,3.10
2018-03-03T17:18:49.729Z,3.10
2018-03-03T17:21:18.115Z,2.90
2018-03-03T17:23:46.364Z,2.70
2018-03-03T17:26:13.869Z,2.70
2018-03-03T17:28:41.381Z,2.60
2018-03-03T17:31:08.883Z,2.60
2018-03-03T17:33:36.389Z,2.70
2018-03-03T17:36:03.975Z,2.80
2018-03-03T17:38:32.324Z,2.90
2018-03-03T17:40:59.841Z,2.90
2018-03-03T17:43:27.353Z,2.90
2018-03-03T17:45:55.614Z,3.10
2018-03-03T17:48:23.129Z,3.00
2018-03-03T17:50:50.630Z,3.10
2018-03-03T17:53:18.188Z,3.10
2018-03-03T17:55:45.687Z,3.00
2018-03-03T17:58:13.206Z,3.00
2018-03-03T18:00:40.719Z,3.10
2018-03-03T18:03:08.241Z,3.00
2018-03-03T18:05:36.500Z,3.20
2018-03-03T18:08:04.017Z,3.20
2018-03-03T18:10:31.637Z,3.20
2018-03-03T18:12:59.209Z,3.10
2018-03-03T18:15:26.713Z,3.00
2018-03-03T18:17:55.832Z,3.00
2018-03-03T18:20:24.101Z,2.80
2018-03-03T18:22:52.410Z,2.80
2018-03-03T18:25:19.905Z,2.80
2018-03-03T18:27:47.517Z,2.80
2018-03-03T18:30:15.030Z,2.70
2018-03-03T18:32:42.575Z,2.50
2018-03-03T18:35:10.084Z,2.50
2018-03-03T18:37:38.366Z,2.50
2018-03-03T18:40:05.966Z,2.50
2018-03-03T18:42:33.490Z,2.50
2018-03-03T18:45:01.042Z,2.40
2018-03-03T18:47:28.557Z,2.40
2018-03-03T18:49:56.174Z,2.50
2018-03-03T18:52:23.727Z,2.40
2018-03-03T18:54:51.240Z,2.50
2018-03-03T18:57:19.616Z,2.30
2018-03-03T18:59:47.877Z,2.40
2018-03-03T19:02:15.375Z,2.30
2018-03-03T19:04:42.886Z,2.60
2018-03-03T19:07:11.148Z,2.50
2018-03-03T19:09:38.665Z,2.40
2018-03-03T19:12:06.183Z,2.50
2018-03-03T19:14:33.726Z,2.40
2018-03-03T19:17:01.228Z,2.40
2018-03-03T19:19:28.736Z,2.50
2018-03-03T19:21:56.354Z,2.60
2018-03-03T19:24:23.861Z,2.60
2018-03-03T19:26:51.403Z,2.80
2018-03-03T19:29:19.067Z,2.70
2018-03-03T19:31:46.529Z,2.60
2018-03-03T19:34:14.045Z,2.70
2018-03-03T19:36:41.566Z,2.60
2018-03-03T19:39:09.908Z,2.40
2018-03-03T19:41:37.766Z,2.40
2018-03-03T19:44:05.433Z,2.40
2018-03-03T19:46:32.973Z,2.40
2018-03-03T19:49:00.475Z,2.40
2018-03-03T19:51:27.995Z,2.50
2018-03-03T19:53:56.135Z,2.50
2018-03-03T19:56:23.632Z,2.20
2018-03-03T19:58:51.164Z,2.20
2018-03-03T20:01:18.698Z,2.30
2018-03-03T20:03:46.959Z,2.40
2018-03-03T20:06:15.258Z,2.20
2018-03-03T20:08:42.972Z,2.20
2018-03-03T20:11:10.491Z,2.20
2018-03-03T20:13:38.026Z,2.20
2018-03-03T20:16:05.517Z,2.20
2018-03-03T20:18:33.060Z,2.30
2018-03-03T20:21:00.596Z,2.40
2018-03-03T20:23:28.866Z,2.40
2018-03-03T20:25:57.129Z,2.20
2018-03-03T20:28:25.629Z,2.20
2018-03-03T20:31:03.707Z,2.20
2018-03-03T20:33:32.316Z,2.40
2018-03-03T20:36:00.085Z,2.30
2018-03-03T20:38:38.482Z,2.40
2018-03-03T20:41:06.184Z,2.40
2018-03-03T20:43:35.583Z,2.20
2018-03-03T20:46:03.553Z,2.10
2018-03-03T20:48:31.506Z,2.20
2018-03-03T20:51:01.779Z,2.20
2018-03-03T20:53:30.968Z,2.20
2018-03-03T20:56:00.143Z,2.40
2018-03-03T20:58:29.119Z,2.60
2018-03-03T21:00:58.168Z,2.50
2018-03-03T21:03:26.747Z,2.60
2018-03-03T21:05:55.795Z,2.60
2018-03-03T21:08:25.301Z,2.60
2018-03-03T21:10:54.830Z,2.50
2018-03-03T21:13:22.433Z,2.50
2018-03-03T21:15:49.919Z,2.70
2018-03-03T21:18:17.429Z,2.70
2018-03-03T21:20:44.925Z,2.70
2018-03-03T21:23:12.449Z,2.60
2018-03-03T21:25:39.935Z,2.40
2018-03-03T21:28:07.438Z,2.50
2018-03-03T21:30:34.998Z,2.60
2018-03-03T21:33:02.502Z,2.50
2018-03-03T21:35:30.024Z,2.40
2018-03-03T21:37:57.518Z,2.50
2018-03-03T21:40:25.029Z,2.50
2018-03-03T21:42:52.557Z,2.40
2018-03-03T21:45:20.911Z,2.60
2018-03-03T21:47:48.407Z,2.50
2018-03-03T21:50:16.689Z,2.50
2018-03-03T21:52:44.205Z,2.50
2018-03-03T21:55:12.485Z,2.60
2018-03-03T21:57:39.971Z,2.50
2018-03-03T22:00:07.473Z,2.50
2018-03-03T22:02:34.984Z,2.40
2018-03-03T22:05:03.265Z,2.40
2018-03-03T22:07:30.744Z,2.40
2018-03-03T22:09:58.320Z,2.40
2018-03-03T22:12:25.846Z,2.50
2018-03-03T22:14:53.621Z,2.50
2018-03-03T22:17:21.250Z,2.50
2018-03-03T22:19:49.546Z,2.30
2018-03-03T22:22:17.086Z,2.30
2018-03-03T22:24:44.624Z,2.20
2018-03-03T22:27:12.882Z,2.40
2018-03-03T22:29:40.405Z,2.40
2018-03-03T22:32:07.927Z,2.50
2018-03-03T22:34:35.504Z,2.40
2018-03-03T22:37:03.015Z,2.20
2018-03-03T22:39:30.623Z,2.10
2018-03-03T22:41:58.150Z,2.30
2018-03-03T22:44:26.457Z,2.30
2018-03-03T22:46:53.944Z,2.20
2018-03-03T22:49:21.583Z,2.10
2018-03-03T22:51:49.111Z,2.10
2018-03-03T22:54:16.621Z,2.20
2018-03-03T22:56:44.215Z,2.20
2018-03-03T22:59:12.481Z,2.10
2018-03-03T23:01:40.769Z,2.00
2018-03-03T23:04:08.365Z,2.00
2018-03-03T23:06:35.867Z,1.90
2018-03-03T23:09:04.241Z,2.00
2018-03-03T23:11:32.595Z,2.00
2018-03-03T23:14:00.112Z,1.90
2018-03-03T23:16:27.822Z,1.90
2018-03-03T23:18:55.332Z,1.80
2018-03-03T23:21:22.893Z,1.70
2018-03-03T23:23:50.430Z,1.70
2018-03-03T23:26:19.035Z,2.10
2018-03-03T23:28:46.636Z,2.00
2018-03-03T23:31:14.237Z,2.10
2018-03-03T23:33:41.912Z,2.00
2018-03-03T23:36:09.520Z,2.00
2018-03-03T23:38:37.108Z,2.00
2018-03-03T23:41:04.622Z,1.90
2018-03-03T23:43:32.177Z,1.90
2018-03-03T23:45:59.746Z,2.00
2018-03-03T23:48:27.333Z,2.10
2018-03-03T23:50:54.881Z,1.90
2018-03-03T23:53:23.157Z,1.90
2018-03-03T23:55:51.445Z,1.90
2018-03-03T23:58:18.964Z,1.80
